createdAt,value
2022-12-11T00:00:01.361Z,35.2
2022-12-11T00:02:01.317Z,36
2022-12-11T00:04:01.094Z,9.9
2022-12-11T00:06:03.543Z,31.7
2022-12-11T00:08:03.507Z,48.6
2022-12-11T00:10:03.345Z,22.9
2022-12-11T00:18:54.467Z,20.2
2022-12-11T00:20:54.334Z,25.9
2022-12-11T00:22:54.195Z,24.9
2022-12-11T00:26:56.532Z,36.8
2022-12-11T00:28:56.407Z,45.1
2022-12-11T00:30:58.897Z,32.1
2022-12-11T00:32:58.724Z,29.2
2022-12-11T00:34:58.609Z,39
2022-12-11T00:39:59.604Z,33.9
2022-12-11T00:41:59.467Z,50.7
2022-12-11T00:43:59.352Z,36
2022-12-11T00:46:01.920Z,50.7
2022-12-11T00:50:01.577Z,23.6
2022-12-11T00:52:03.969Z,33.2
2022-12-11T00:54:03.879Z,46.2
2022-12-11T00:56:03.778Z,31.2
2022-12-11T00:58:06.209Z,51.3
2022-12-11T01:00:06.077Z,36.5
2022-12-11T01:02:05.955Z,46
2022-12-11T01:04:08.391Z,40.6
2022-12-11T01:08:08.207Z,45.3
2022-12-11T01:10:10.644Z,35.9
2022-12-11T01:18:12.687Z,47
2022-12-11T01:20:12.557Z,30.7
2022-12-11T01:27:18.071Z,59.8
2022-12-11T01:29:17.944Z,39.9
2022-12-11T01:31:20.452Z,44.8
2022-12-11T01:33:20.271Z,42.3
2022-12-11T01:42:26.121Z,46.8
2022-12-11T01:44:26.024Z,61.3
2022-12-11T01:46:28.531Z,36.4
2022-12-11T01:48:28.433Z,44.5
2022-12-11T01:50:28.224Z,51.6
2022-12-11T01:52:30.612Z,54.6
2022-12-11T01:54:30.534Z,30.4
2022-12-11T01:56:30.439Z,45.4
2022-12-11T01:58:52.901Z,50.9
2022-12-11T02:00:52.873Z,59.8
2022-12-11T02:02:52.681Z,48.4
2022-12-11T02:04:56.028Z,56.5
2022-12-11T02:06:55.924Z,54.2
2022-12-11T02:08:55.816Z,38.9
2022-12-11T02:10:55.702Z,40.5
2022-12-11T02:12:55.599Z,43.1
2022-12-11T02:14:55.505Z,44.6
2022-12-11T02:16:55.357Z,52.8
2022-12-11T02:18:58.740Z,40.9
2022-12-11T02:20:58.620Z,52.7
2022-12-11T02:22:58.525Z,53.3
2022-12-11T02:24:58.435Z,50
2022-12-11T02:26:58.307Z,33.1
2022-12-11T02:28:58.159Z,55.6
2022-12-11T02:30:58.282Z,58.2
2022-12-11T02:35:01.340Z,44.5
2022-12-11T02:37:01.237Z,52
2022-12-11T02:39:01.106Z,56.7
2022-12-11T02:41:01.000Z,41.3
2022-12-11T02:43:00.922Z,47.9
2022-12-11T02:45:00.801Z,35.8
2022-12-11T02:47:04.137Z,48.4
2022-12-11T02:49:04.089Z,41.1
2022-12-11T02:51:03.985Z,41.8
2022-12-11T02:52:05.657Z,63.5
2022-12-11T02:54:05.556Z,44.8
2022-12-11T02:56:05.429Z,45.1
2022-12-11T03:00:08.689Z,53.8
2022-12-11T03:04:08.472Z,39.7
2022-12-11T03:06:08.361Z,41.3
2022-12-11T03:08:08.265Z,40.6
2022-12-11T03:10:08.126Z,34.2
2022-12-11T03:12:08.048Z,42.8
2022-12-11T03:14:11.415Z,41.9
2022-12-11T03:16:11.371Z,53.7
2022-12-11T03:18:11.172Z,38.5
2022-12-11T03:20:11.053Z,72.9
2022-12-11T03:22:10.927Z,40
2022-12-11T03:26:10.737Z,44.2
2022-12-11T03:28:14.104Z,52.6
2022-12-11T03:30:13.979Z,63.4
2022-12-11T03:32:13.850Z,39.2
2022-12-11T03:34:13.769Z,48.7
2022-12-11T03:40:13.420Z,42.6
2022-12-11T03:42:16.816Z,69.3
2022-12-11T03:44:16.688Z,46.9
2022-12-11T03:46:16.630Z,35.6
2022-12-11T03:47:18.263Z,60.6
2022-12-11T03:57:21.207Z,42.7
2022-12-11T03:59:21.077Z,56.5
2022-12-11T04:01:21.027Z,45.7
2022-12-11T04:03:20.877Z,48.1
2022-12-11T04:07:20.634Z,66.5
2022-12-11T04:09:24.026Z,39.8
2022-12-11T04:11:23.924Z,51.4
2022-12-11T04:13:23.815Z,59.9
2022-12-11T04:15:23.692Z,39.2
2022-12-11T04:17:23.591Z,31.1
2022-12-11T04:19:23.509Z,47.9
2022-12-11T04:21:23.367Z,32.1
2022-12-11T04:23:26.748Z,60
2022-12-11T04:25:26.613Z,53.2
2022-12-11T04:27:26.522Z,41.5
2022-12-11T04:29:26.398Z,46.2
2022-12-11T04:31:26.305Z,33.8
2022-12-11T04:33:26.188Z,54.1
2022-12-11T04:35:26.017Z,39.9
2022-12-11T04:37:29.416Z,45.7
2022-12-11T04:42:30.916Z,59.2
2022-12-11T04:44:30.802Z,39.6
2022-12-11T04:46:30.828Z,22.4
2022-12-11T04:50:33.981Z,42.2
2022-12-11T04:52:33.852Z,44.1
2022-12-11T04:54:33.731Z,59.7
2022-12-11T04:56:33.618Z,43.4
2022-12-11T04:58:33.506Z,57.3
2022-12-11T05:00:33.397Z,58
2022-12-11T05:02:33.279Z,34.1
2022-12-11T05:04:36.665Z,40.4
2022-12-11T05:06:36.552Z,56.1
2022-12-11T05:08:36.440Z,44.3
2022-12-11T05:10:36.320Z,49.7
2022-12-11T05:12:36.199Z,48.5
2022-12-11T05:14:36.091Z,49
2022-12-11T05:16:35.954Z,46.8
2022-12-11T05:18:39.345Z,44.8
2022-12-11T05:20:39.230Z,55.6
2022-12-11T05:22:39.095Z,36.5
2022-12-11T05:24:38.984Z,69.1
2022-12-11T05:26:38.856Z,36.3
2022-12-11T05:28:38.742Z,37.9
2022-12-11T05:30:38.644Z,50.4
2022-12-11T05:32:41.998Z,58.6
2022-12-11T05:34:41.893Z,52.3
2022-12-11T05:36:41.768Z,50.2
2022-12-11T05:39:01.662Z,35.3
2022-12-11T05:41:01.572Z,48.1
2022-12-11T05:43:01.434Z,29.8
2022-12-11T05:45:04.787Z,47.8
2022-12-11T05:47:04.696Z,30.1
2022-12-11T05:49:04.577Z,46.8
2022-12-11T05:51:04.440Z,69.8
2022-12-11T05:53:04.367Z,51.9
2022-12-11T05:55:04.207Z,48.2
2022-12-11T05:57:04.114Z,41.6
2022-12-11T06:01:07.396Z,56.7
2022-12-11T06:05:07.100Z,48.6
2022-12-11T06:07:06.997Z,59.9
2022-12-11T06:09:06.912Z,67.2
2022-12-11T06:11:06.799Z,64.5
2022-12-11T06:21:10.084Z,44.3
2022-12-11T06:23:09.939Z,43.2
2022-12-11T06:25:10.112Z,48
2022-12-11T06:27:13.230Z,55
2022-12-11T06:29:13.316Z,55.2
2022-12-11T06:32:14.655Z,61
2022-12-11T06:34:14.530Z,50.2
2022-12-11T06:36:14.449Z,42.4
2022-12-11T06:38:14.332Z,54.4
2022-12-11T06:40:17.721Z,42.5
2022-12-11T06:42:17.605Z,52.5
2022-12-11T06:44:17.462Z,58.1
2022-12-11T06:46:17.470Z,60
2022-12-11T06:48:17.230Z,46.3
2022-12-11T06:50:17.121Z,50
2022-12-11T06:52:18.729Z,52.6
2022-12-11T06:54:20.370Z,48.7
2022-12-11T06:56:20.264Z,51.2
2022-12-11T06:58:20.158Z,50.5
2022-12-11T07:00:20.045Z,42.6
2022-12-11T07:02:19.978Z,40
2022-12-11T07:04:19.812Z,43.1
2022-12-11T07:06:19.737Z,55
2022-12-11T07:08:23.104Z,53
2022-12-11T07:10:22.983Z,30.9
2022-12-11T07:12:22.863Z,44.9
2022-12-11T07:14:22.758Z,31.5
2022-12-11T07:16:22.680Z,39.5
2022-12-11T07:18:22.547Z,37.2
2022-12-11T07:20:22.379Z,34.6
2022-12-11T07:22:25.835Z,53.9
2022-12-11T07:24:25.703Z,35.4
2022-12-11T07:26:25.597Z,44.7
2022-12-11T07:27:27.315Z,41.5
2022-12-11T07:29:27.196Z,48.7
2022-12-11T07:31:27.198Z,40.3
2022-12-11T07:33:26.948Z,37.5
2022-12-11T07:39:31.648Z,43.1
2022-12-11T07:41:31.559Z,39
2022-12-11T07:43:31.424Z,30.7
2022-12-11T07:47:31.215Z,43.3
2022-12-11T07:49:34.589Z,44.3
2022-12-11T07:51:34.474Z,48.8
2022-12-11T07:53:34.353Z,40.5
2022-12-11T07:55:34.255Z,34.8
2022-12-11T07:57:34.165Z,37.4
2022-12-11T07:59:34.013Z,33.5
2022-12-11T08:01:33.987Z,30.6
2022-12-11T08:03:37.287Z,39.8
2022-12-11T08:05:37.172Z,30.7
2022-12-11T08:07:37.069Z,43.7
2022-12-11T08:11:36.834Z,42
2022-12-11T08:17:40.382Z,50.6
2022-12-11T08:19:39.872Z,37.6
2022-12-11T08:21:39.784Z,56
2022-12-11T08:22:41.456Z,34.3
2022-12-11T08:24:41.349Z,38.5
2022-12-11T08:26:41.229Z,31.7
2022-12-11T08:28:41.102Z,44.3
2022-12-11T08:30:44.537Z,37
2022-12-11T08:32:44.392Z,31.1
2022-12-11T08:34:44.283Z,34.7
2022-12-11T08:36:44.157Z,34.1
2022-12-11T08:38:44.039Z,36.4
2022-12-11T08:40:43.931Z,31.1
2022-12-11T08:42:43.833Z,47.1
2022-12-11T08:44:47.200Z,39.4
2022-12-11T08:46:47.078Z,30
2022-12-11T08:48:46.953Z,17.2
2022-12-11T08:50:46.857Z,31.7
2022-12-11T08:52:46.744Z,31.2
2022-12-11T08:54:46.632Z,41
2022-12-11T08:56:46.511Z,28.6
2022-12-11T08:58:49.881Z,27.8
2022-12-11T09:00:49.781Z,37.1
2022-12-11T09:02:49.682Z,54.1
2022-12-11T09:04:49.549Z,29
2022-12-11T09:06:49.421Z,30.9
2022-12-11T09:08:52.499Z,20.7
2022-12-11T09:10:49.178Z,36.2
2022-12-11T09:12:52.609Z,19.2
2022-12-11T09:14:52.462Z,34.8
2022-12-11T09:16:52.374Z,21.5
2022-12-11T09:18:54.768Z,26.4
2022-12-11T09:20:54.656Z,25.6
2022-12-11T09:22:54.555Z,23.3
2022-12-11T09:24:56.977Z,29.2
2022-12-11T09:26:56.836Z,19.6
2022-12-11T09:28:56.723Z,23.8
2022-12-11T09:30:59.174Z,21.7
2022-12-11T09:32:59.046Z,26
2022-12-11T09:34:58.860Z,26.1
2022-12-11T09:37:01.347Z,18.8
2022-12-11T09:39:01.227Z,26.9
2022-12-11T09:45:03.411Z,24.7
2022-12-11T09:51:05.614Z,30.8
2022-12-11T09:55:07.928Z,20.1
2022-12-11T09:57:07.774Z,20.1
2022-12-11T09:59:07.717Z,9.2
2022-12-11T10:01:10.185Z,23.5
2022-12-11T10:03:09.995Z,25.7
2022-12-11T10:05:10.198Z,16.5
2022-12-11T10:07:12.280Z,19.4
2022-12-11T10:09:12.263Z,11.8
2022-12-11T10:13:14.494Z,16.8
2022-12-11T10:15:14.743Z,20.3
2022-12-11T10:17:14.240Z,13
2022-12-11T10:19:16.689Z,11.9
2022-12-11T10:21:16.567Z,19.2
2022-12-11T10:23:16.456Z,13.2
2022-12-11T10:25:18.890Z,15
2022-12-11T10:27:18.876Z,21.8
2022-12-11T10:29:18.684Z,22.7
2022-12-11T10:31:21.131Z,14.1
2022-12-11T10:33:20.970Z,28.6
2022-12-11T10:35:20.857Z,15.1
2022-12-11T10:37:23.262Z,21.6
2022-12-11T10:39:23.160Z,14.5
2022-12-11T10:41:23.056Z,16
2022-12-11T10:43:25.452Z,16.9
2022-12-11T10:45:25.374Z,22.7
2022-12-11T10:47:25.250Z,16.3
2022-12-11T10:49:27.703Z,15.5
2022-12-11T10:51:27.578Z,18.5
2022-12-11T10:53:27.447Z,15.6
2022-12-11T10:55:29.880Z,23
2022-12-11T10:57:29.758Z,18.6
2022-12-11T10:59:29.652Z,18.1
2022-12-11T11:01:32.109Z,11.1
2022-12-11T11:03:31.954Z,20.6
2022-12-11T11:05:31.836Z,21.4
2022-12-11T11:17:20.185Z,16.8
2022-12-11T11:19:20.058Z,18.1
2022-12-11T11:21:19.912Z,15.6
2022-12-11T11:23:39.812Z,22.4
2022-12-11T11:25:35.844Z,13.1
2022-12-11T11:27:35.740Z,14.7
2022-12-11T11:29:39.107Z,20.6
2022-12-11T11:31:39.221Z,15.4
2022-12-11T11:33:38.884Z,31.1
2022-12-11T11:37:38.656Z,19.2
2022-12-11T11:39:38.509Z,24.4
2022-12-11T11:41:38.382Z,18.2
2022-12-11T11:43:41.824Z,18.5
2022-12-11T11:45:41.684Z,20.9
2022-12-11T11:47:41.624Z,17.7
2022-12-11T11:55:41.102Z,18
2022-12-11T11:57:44.482Z,14.9
2022-12-11T11:59:44.380Z,13.4
2022-12-11T12:01:44.251Z,13.6
2022-12-11T12:03:44.137Z,18.9
2022-12-11T12:05:44.019Z,16.5
2022-12-11T12:07:43.946Z,16.6
2022-12-11T12:09:43.799Z,23.3
2022-12-11T12:11:47.181Z,14.1
2022-12-11T12:16:53.460Z,35
2022-12-11T12:18:48.541Z,12
2022-12-11T12:20:48.410Z,19.1
2022-12-11T12:22:48.309Z,17.3
2022-12-11T12:24:51.709Z,18.6
2022-12-11T12:26:51.557Z,14.4
2022-12-11T12:28:51.440Z,17.6
2022-12-11T12:30:51.351Z,19.5
2022-12-11T12:32:51.223Z,22.2
2022-12-11T12:34:51.133Z,14.1
2022-12-11T12:36:51.014Z,17.1
2022-12-11T12:38:54.366Z,22.6
2022-12-11T12:40:54.250Z,19.7
2022-12-11T12:50:53.648Z,25.8
2022-12-11T12:54:56.944Z,23.3
2022-12-11T12:56:56.823Z,16.6
2022-12-11T12:58:56.707Z,19.7
2022-12-11T13:00:56.642Z,13.8
2022-12-11T13:02:56.492Z,22.1
2022-12-11T13:04:56.722Z,15.9
2022-12-11T13:08:59.612Z,16.3
2022-12-11T13:10:59.522Z,12.8
2022-12-11T13:12:01.180Z,27.6
2022-12-11T13:14:01.122Z,14.5
2022-12-11T13:16:01.101Z,20.3
2022-12-11T13:18:00.893Z,14
2022-12-11T13:20:04.310Z,19.1
2022-12-11T13:22:04.141Z,26.4
2022-12-11T13:24:04.050Z,7.9
2022-12-11T13:26:03.895Z,15.7
2022-12-11T13:36:11.379Z,20.1
2022-12-11T13:40:06.625Z,19
2022-12-11T13:42:06.513Z,16.1
2022-12-11T13:44:06.393Z,19
2022-12-11T13:46:06.314Z,14.5
2022-12-11T13:48:12.811Z,21.3
2022-12-11T13:50:09.565Z,28.9
2022-12-11T13:52:09.447Z,32.6
2022-12-11T13:54:12.690Z,19.9
2022-12-11T13:56:09.202Z,19
2022-12-11T13:58:09.111Z,24.6
2022-12-11T14:00:13.001Z,24
2022-12-11T14:02:12.417Z,26.7
2022-12-11T14:04:12.228Z,21.6
2022-12-11T14:06:18.076Z,26.1
2022-12-11T14:07:13.815Z,26
2022-12-11T14:09:13.715Z,25.9
2022-12-11T14:11:13.590Z,27.6
2022-12-11T14:13:13.483Z,18.5
2022-12-11T14:25:16.298Z,24.9
2022-12-11T14:31:19.505Z,23.4
2022-12-11T14:33:19.307Z,22.2
2022-12-11T14:35:19.201Z,13.7
2022-12-11T14:37:19.098Z,17.9
2022-12-11T14:39:18.965Z,23.8
2022-12-11T14:41:18.882Z,15.6
2022-12-11T14:43:22.255Z,32.1
2022-12-11T14:45:22.128Z,43.1
2022-12-11T14:47:22.009Z,20.4
2022-12-11T14:49:21.956Z,20.8
2022-12-11T14:51:21.826Z,15.4
2022-12-11T14:53:21.694Z,32.9
2022-12-11T14:55:21.647Z,20.2
2022-12-11T15:01:24.858Z,17.7
2022-12-11T15:03:27.136Z,27.7
2022-12-11T15:07:26.937Z,17.5
2022-12-11T15:09:29.367Z,18
2022-12-11T15:11:29.212Z,20.5
2022-12-11T15:13:29.085Z,15.8
2022-12-11T15:15:51.424Z,24.1
2022-12-11T15:17:52.839Z,24.6
2022-12-11T15:19:51.180Z,21.7
2022-12-11T15:21:54.550Z,21.8
2022-12-11T15:25:54.341Z,23.4
2022-12-11T15:27:54.248Z,19.5
2022-12-11T15:29:54.146Z,28
2022-12-11T15:31:54.013Z,20.2
2022-12-11T15:33:53.928Z,24.2
2022-12-11T15:35:57.292Z,22.1
2022-12-11T15:37:57.182Z,19.6
2022-12-11T15:39:57.100Z,23.4
2022-12-11T15:41:56.964Z,23.4
2022-12-11T15:43:58.870Z,14.9
2022-12-11T15:45:56.785Z,20.5
2022-12-11T15:47:56.637Z,25.1
2022-12-11T15:49:59.997Z,22.6
2022-12-11T15:51:59.904Z,28.6
2022-12-11T15:53:59.757Z,30.6
2022-12-11T15:55:59.671Z,23.9
2022-12-11T15:57:59.548Z,22.6
2022-12-11T15:59:59.425Z,19.2
2022-12-11T16:01:59.294Z,19
2022-12-11T16:04:05.180Z,19.4
2022-12-11T16:06:02.576Z,26.5
2022-12-11T16:08:02.555Z,20.9
2022-12-11T16:11:04.024Z,20.6
2022-12-11T16:13:03.932Z,27.5
2022-12-11T16:15:03.828Z,24.1
2022-12-11T16:17:07.010Z,23
2022-12-11T16:19:06.908Z,21.5
2022-12-11T16:21:06.794Z,23.8
2022-12-11T16:29:06.353Z,20.3
2022-12-11T16:31:09.797Z,18
2022-12-11T16:33:12.879Z,19.9
2022-12-11T16:35:09.792Z,14.9
2022-12-11T16:37:09.376Z,22.5
2022-12-11T16:39:09.280Z,23.5
2022-12-11T16:41:09.173Z,30.2
2022-12-11T16:43:09.090Z,24.9
2022-12-11T16:45:12.684Z,22.8
2022-12-11T16:47:12.324Z,16.9
2022-12-11T16:49:12.180Z,34.6
2022-12-11T16:51:12.096Z,17.5
2022-12-11T16:53:11.981Z,18.2
2022-12-11T16:57:11.754Z,18.6
2022-12-11T16:59:15.156Z,26.8
2022-12-11T17:03:14.936Z,18.5
2022-12-11T17:06:16.483Z,23.8
2022-12-11T17:08:16.434Z,17.7
2022-12-11T17:10:16.259Z,28.3
2022-12-11T17:12:19.635Z,20.7
2022-12-11T17:14:19.518Z,23.6
2022-12-11T17:16:19.458Z,19.9
2022-12-11T17:18:19.361Z,24.9
2022-12-11T17:20:19.187Z,32.9
2022-12-11T17:22:19.037Z,21.4
2022-12-11T17:24:18.942Z,15.9
2022-12-11T17:26:22.342Z,28.6
2022-12-11T17:28:22.236Z,18.8
2022-12-11T17:30:22.119Z,26.9
2022-12-11T17:32:21.967Z,20.8
2022-12-11T17:34:21.871Z,36.6
2022-12-11T17:36:21.801Z,18.4
2022-12-11T17:38:21.672Z,23.4
2022-12-11T17:40:25.060Z,21.8
2022-12-11T17:44:24.849Z,26.6
2022-12-11T17:50:24.517Z,22.4
2022-12-11T17:52:27.302Z,21.6
2022-12-11T17:59:29.261Z,25.5
2022-12-11T18:01:29.269Z,20.8
2022-12-11T18:03:29.128Z,26.4
2022-12-11T18:05:28.971Z,18.2
2022-12-11T18:07:32.366Z,24.4
2022-12-11T18:09:32.233Z,20.7
2022-12-11T18:11:32.150Z,18.6
2022-12-11T18:13:32.019Z,21.9
2022-12-11T18:15:31.920Z,22.4
2022-12-11T18:17:31.818Z,23.9
2022-12-11T18:19:31.680Z,26.3
2022-12-11T18:21:35.087Z,23.9
2022-12-11T18:23:34.940Z,25.4
2022-12-11T18:25:34.825Z,15.6
2022-12-11T18:27:34.731Z,25.9
2022-12-11T18:29:34.625Z,19.7
2022-12-11T18:31:40.564Z,24.4
2022-12-11T18:39:37.523Z,19
2022-12-11T18:41:37.411Z,24.3
2022-12-11T18:43:37.304Z,20.8
2022-12-11T18:45:37.214Z,23.5
2022-12-11T18:47:37.098Z,15.7
2022-12-11T18:49:40.501Z,20.5
2022-12-11T18:51:40.375Z,26.2
2022-12-11T18:53:40.219Z,19.6
2022-12-11T18:55:42.671Z,30.4
2022-12-11T18:57:42.532Z,19.2
2022-12-11T18:59:42.417Z,25.2
2022-12-11T19:01:44.866Z,15.7
2022-12-11T19:03:44.741Z,15
2022-12-11T19:10:53.640Z,14.7
2022-12-11T19:12:53.511Z,18.7
2022-12-11T19:14:53.406Z,11.8
2022-12-11T19:21:04.875Z,20.9
2022-12-11T19:25:55.945Z,33.3
2022-12-11T19:27:55.839Z,22.6
2022-12-11T19:29:55.733Z,16.6
2022-12-11T19:31:58.163Z,19.3
2022-12-11T19:33:58.055Z,16.2
2022-12-11T19:35:57.921Z,21.1
2022-12-11T19:38:20.248Z,26.4
2022-12-11T19:40:20.142Z,28.1
2022-12-11T19:42:20.024Z,35.7
2022-12-11T19:44:23.407Z,23.4
2022-12-11T19:46:23.323Z,21.9
2022-12-11T19:48:23.165Z,30.4
2022-12-11T19:50:23.065Z,23
2022-12-11T19:52:22.949Z,28.7
2022-12-11T20:00:25.992Z,18.1
2022-12-11T20:02:25.902Z,21.3
2022-12-11T20:04:25.737Z,19.8
2022-12-11T20:06:25.635Z,16.7
2022-12-11T20:08:44.154Z,19.6
2022-12-11T20:10:25.393Z,22.8
2022-12-11T20:12:28.801Z,25.7
2022-12-11T20:14:28.685Z,27.3
2022-12-11T20:16:53.412Z,17.6
2022-12-11T20:18:28.403Z,18
2022-12-11T20:20:28.343Z,19.9
2022-12-11T20:22:28.197Z,22.9
2022-12-11T20:24:28.096Z,20.5
2022-12-11T20:26:31.480Z,23
2022-12-11T20:28:31.371Z,18.3
2022-12-11T20:30:31.251Z,23.6
2022-12-11T20:31:33.085Z,25
2022-12-11T20:33:32.827Z,23
2022-12-11T20:37:32.626Z,17
2022-12-11T20:39:35.990Z,22.5
2022-12-11T20:41:35.884Z,11.9
2022-12-11T20:55:38.568Z,29.3
2022-12-11T20:57:44.782Z,18.6
2022-12-11T20:59:38.344Z,21.6
2022-12-11T21:01:38.223Z,19.8
2022-12-11T21:03:41.911Z,13.4
2022-12-11T21:05:37.992Z,29.7
2022-12-11T21:07:41.365Z,25.4
2022-12-11T21:09:41.247Z,24.4
2022-12-11T21:11:41.134Z,18.6
2022-12-11T21:13:41.036Z,19.9
2022-12-11T21:15:40.907Z,19.8
2022-12-11T21:17:40.800Z,19.3
2022-12-11T21:19:40.676Z,16.9
2022-12-11T21:21:44.032Z,25.1
2022-12-11T21:23:43.947Z,18.9
2022-12-11T21:26:45.533Z,18.6
2022-12-11T21:28:45.415Z,25.6
2022-12-11T21:34:48.567Z,21.9
2022-12-11T21:36:48.473Z,25.3
2022-12-11T21:38:48.326Z,21.1
2022-12-11T21:42:48.699Z,19.7
2022-12-11T21:46:48.551Z,14.5
2022-12-11T21:48:51.818Z,29.2
2022-12-11T21:52:51.593Z,25.3
2022-12-11T21:54:51.478Z,24
2022-12-11T21:58:51.233Z,20.6
2022-12-11T22:02:54.628Z,31.8
2022-12-11T22:04:54.538Z,21.4
2022-12-11T22:06:54.372Z,21.8
2022-12-11T22:08:54.211Z,23.8
2022-12-11T22:10:54.101Z,25
2022-12-11T22:12:53.956Z,19.8
2022-12-11T22:14:53.861Z,20.7
2022-12-11T22:16:57.278Z,23.1
2022-12-11T22:18:57.109Z,24.1
2022-12-11T22:20:57.025Z,19.9
2022-12-11T22:21:58.720Z,22.4
2022-12-11T22:23:58.599Z,23.3
2022-12-11T22:25:58.497Z,13
2022-12-11T22:27:58.389Z,22.9
2022-12-11T22:30:01.768Z,28
2022-12-11T22:32:01.676Z,27.2
2022-12-11T22:34:01.595Z,21.6
2022-12-11T22:40:01.218Z,17.7
2022-12-11T22:42:01.127Z,19
2022-12-11T22:44:04.487Z,27.3
2022-12-11T22:46:04.421Z,18.8
2022-12-11T22:58:07.206Z,29.5
2022-12-11T23:00:07.056Z,15.9
2022-12-11T23:06:06.594Z,21.7
2022-12-11T23:08:06.656Z,23.3
2022-12-11T23:10:06.418Z,21.2
2022-12-11T23:12:09.789Z,22.2
2022-12-11T23:14:09.642Z,20.3
2022-12-11T23:16:09.527Z,27.4
2022-12-11T23:18:29.287Z,23.1
2022-12-11T23:20:29.211Z,27.2
2022-12-11T23:22:29.111Z,25.3
2022-12-11T23:24:32.451Z,25.7
2022-12-11T23:26:32.335Z,28.9
2022-12-11T23:28:32.251Z,35.9
2022-12-11T23:30:32.239Z,32.1
2022-12-11T23:42:34.911Z,20.2
2022-12-11T23:52:37.862Z,21.1
2022-12-11T23:54:37.766Z,18.8
2022-12-11T23:56:37.634Z,23.2
2022-12-11T23:58:37.640Z,26.2
